Terminal Aerodrome Forecast
Issued by NWS Caribou, ME

Home | Current Version | Previous Version | Text Only | Print | Product List | Glossary On
Versions: 1 2 3 4 5 6 7 8 9 10 11 12 13
000
FTUS41 KCAR 230500 RRA
TAFCAR
TAF
KCAR 230547Z 2306/2406 11006KT 3SM -RA BR OVC005
     FM231500 36006KT 5SM -RA SCT008 OVC015
     FM231900 35008KT P6SM BKN035 OVC050
     FM232300 34010KT 5SM -RA OVC015=

USA.gov is the U.S. government's official web portal to all federal, state and local government web resources and services.